Time;durP1;ratioP1;P1;durP2;ratioP2;P2;SDS_P1;SDS_P2;PMS_P1;PMS_P2;Temp;Humidity;BMP_temperature;BMP_pressure;BME280_temperature;BME280_humidity;BME280_pressure;Samples;Min_cycle;Max_cycle;Signal;HPM_P1;HPM_P2
2022/12/15 11:40:41;;;;;;;45.10;28.90;;;;;;;-2.29;100.00;100875.66;5313538;27;20359;-84
2022/12/15 11:43:42;;;;;;;50.50;31.50;;;;;;;-2.19;100.00;100887.56;5314746;28;20289;-74
2022/12/15 11:46:26;;;;;;;46.47;31.10;;;;;;;-2.19;100.00;100885.00;5313161;28;20799;-75
2022/12/15 11:49:24;;;;;;;51.80;30.67;;;;;;;-2.08;100.00;100891.78;5316744;28;20273;-73
2022/12/15 11:52:16;;;;;;;43.63;30.07;;;;;;;-2.07;100.00;100872.94;5315933;28;20020;-75
2022/12/15 11:54:54;;;;;;;45.80;31.67;;;;;;;-1.97;100.00;100871.16;5316188;28;20274;-73
2022/12/15 11:58:03;;;;;;;44.97;31.47;;;;;;;-1.88;100.00;100872.81;5316360;28;20313;-74
2022/12/15 12:00:41;;;;;;;53.77;31.23;;;;;;;-1.96;100.00;100858.34;5315399;28;20683;-73
2022/12/15 12:03:33;;;;;;;40.57;30.30;;;;;;;-1.75;100.00;100876.13;5315237;28;20278;-75
2022/12/15 12:06:28;;;;;;;44.37;30.47;;;;;;;-1.76;100.00;100861.59;5313048;28;20320;-76
2022/12/15 12:09:26;;;;;;;37.55;26.10;;;;;;;-1.66;100.00;100865.81;5316593;28;21001;-76
2022/12/15 12:12:10;;;;;;;41.53;29.80;;;;;;;-1.61;100.00;100865.75;5316102;28;20098;-76
2022/12/15 12:15:03;;;;;;;45.13;31.10;;;;;;;-1.58;100.00;100853.75;5313836;28;20027;-81
2022/12/15 12:17:51;;;;;;;45.70;30.93;;;;;;;-1.54;100.00;100859.69;5315290;28;20024;-77
2022/12/15 12:20:29;;;;;;;42.97;30.10;;;;;;;-1.61;100.00;100840.94;5315253;28;20314;-76
2022/12/15 12:23:23;;;;;;;45.40;30.67;;;;;;;-1.47;100.00;100851.06;5314599;28;20270;-75
2022/12/15 12:26:06;;;;;;;45.17;30.93;;;;;;;-1.46;100.00;100855.34;5313903;28;20073;-76
2022/12/15 12:28:46;;;;;;;47.63;31.67;;;;;;;-1.41;100.00;100849.28;5312933;28;20299;-76
2022/12/15 12:31:28;;;;;;;43.57;32.37;;;;;;;-1.42;100.00;100840.75;5314171;28;20020;-79
2022/12/15 12:34:08;;;;;;;47.93;33.40;;;;;;;-1.41;100.00;100833.88;5314220;28;20886;-74
2022/12/15 12:36:42;;;;;;;40.63;29.80;;;;;;;-1.51;100.00;100823.69;5302298;28;20282;-85
2022/12/15 12:39:19;;;;;;;;;;;;;;;-1.26;100.00;100853.44;5293800;28;20048;-73
2022/12/15 12:42:02;;;;;;;45.53;31.73;;;;;;;-1.26;100.00;100854.31;5294001;28;19912;-74
2022/12/15 12:44:37;;;;;;;45.67;30.23;;;;;;;-1.40;100.00;100836.44;5293657;28;20274;-75
2022/12/15 12:47:26;;;;;;;40.08;30.58;;;;;;;-1.21;100.00;100859.38;5309694;28;20032;-75
2022/12/15 12:50:12;;;;;;;48.93;34.03;;;;;;;-1.15;100.00;100861.06;5290601;28;20028;-75
2022/12/15 12:52:50;;;;;;;49.03;33.07;;;;;;;-1.51;100.00;100787.75;5281802;28;20029;-76
2022/12/15 12:55:31;;;;;;;45.37;32.20;;;;;;;-1.10;100.00;100839.53;5281497;28;20055;-75
2022/12/15 12:58:02;;;;;;;41.13;30.70;;;;;;;-1.18;100.00;100831.06;5279952;28;20028;-75
2022/12/15 13:00:34;;;;;;;43.90;32.67;;;;;;;-1.28;100.00;100796.94;5281507;28;20282;-75
2022/12/15 13:03:12;;;;;;;47.13;32.97;;;;;;;-1.00;100.00;100824.88;5280571;28;20116;-79
2022/12/15 13:05:45;;;;;;;45.00;33.73;;;;;;;-1.09;100.00;100807.00;5282203;28;20035;-83
2022/12/15 13:08:26;;;;;;;46.90;33.13;;;;;;;-0.99;100.00;100816.28;5298104;28;20043;-79
2022/12/15 13:11:37;;;;;;;41.50;30.23;;;;;;;-0.91;100.00;100817.94;5296706;28;20390;-77
2022/12/15 13:14:14;;;;;;;44.53;31.17;;;;;;;-1.01;100.00;100820.59;5296952;28;20044;-74
2022/12/15 13:16:47;;;;;;;51.50;34.33;;;;;;;-0.97;100.00;100813.69;5297597;28;20032;-75
2022/12/15 13:19:56;;;;;;;44.87;33.83;;;;;;;-0.93;100.00;100809.38;5299182;28;20028;-72
2022/12/15 13:22:39;;;;;;;43.93;30.67;;;;;;;-0.93;100.00;100802.53;5298663;28;20020;-75
2022/12/15 13:25:40;;;;;;;40.90;32.47;;;;;;;-0.92;100.00;100791.34;5277917;28;20028;-78
2022/12/15 13:28:34;;;;;;;45.60;33.00;;;;;;;-0.89;100.00;100796.44;5275501;28;20028;-73
2022/12/15 13:31:15;;;;;;;41.67;31.90;;;;;;;-0.88;100.00;100798.16;5267143;28;20040;-74
2022/12/15 13:33:54;;;;;;;44.33;32.93;;;;;;;-0.93;100.00;100797.38;5278734;28;20020;-73
2022/12/15 13:36:38;;;;;;;46.37;31.30;;;;;;;-0.86;100.00;100798.16;5278303;28;20210;-73
2022/12/15 13:39:15;;;;;;;45.37;32.80;;;;;;;-0.83;100.00;100792.09;5290450;28;20805;-73
2022/12/15 13:41:46;;;;;;;44.53;32.83;;;;;;;-0.86;100.00;100791.28;5298821;28;20032;-74
2022/12/15 13:44:29;;;;;;;43.30;32.20;;;;;;;-0.86;100.00;100790.44;5297609;28;20039;-72
2022/12/15 13:47:22;;;;;;;42.33;32.40;;;;;;;-0.79;100.00;100791.19;5298482;28;20428;-73
2022/12/15 13:49:59;;;;;;;43.80;31.70;;;;;;;-0.78;100.00;100793.75;5298163;28;20391;-74
2022/12/15 13:52:50;;;;;;;46.80;33.47;;;;;;;-0.78;100.00;100786.03;5297976;28;20032;-73
2022/12/15 13:55:24;;;;;;;45.83;32.97;;;;;;;-0.74;100.00;100789.41;5297221;28;20042;-73
2022/12/15 13:58:02;;;;;;;47.55;33.53;;;;;;;-0.65;100.00;100793.59;5297271;28;20471;-73
2022/12/15 14:00:37;;;;;;;44.83;34.30;;;;;;;-0.68;100.00;100783.34;5298456;28;20061;-72
2022/12/15 14:03:11;;;;;;;;;;;;;;;-0.60;100.00;100791.78;5297199;28;20037;-72
2022/12/15 14:06:12;;;;;;;42.73;30.53;;;;;;;-0.64;100.00;100785.84;5298330;28;19955;-72
2022/12/15 14:08:43;;;;;;;48.37;33.83;;;;;;;-0.65;100.00;100783.28;5295313;28;20036;-72
2022/12/15 14:11:22;;;;;;;46.20;32.30;;;;;;;-0.63;100.00;100784.97;5298241;28;20089;-72
2022/12/15 14:13:59;;;;;;;40.97;30.47;;;;;;;-0.61;100.00;100782.38;5296798;28;20039;-72
2022/12/15 14:16:33;;;;;;;45.90;33.63;;;;;;;-0.63;100.00;100784.97;5295483;28;20031;-72
2022/12/15 14:19:14;;;;;;;;;;;;;;;-0.52;100.00;100777.09;5298340;28;20185;-72
2022/12/15 14:21:48;;;;;;;42.70;30.43;;;;;;;-0.51;100.00;100775.38;5294648;28;19955;-73
2022/12/15 14:24:31;;;;;;;40.33;29.50;;;;;;;-0.46;100.00;100777.88;5297438;28;20398;-75
2022/12/15 14:27:04;;;;;;;39.27;29.47;;;;;;;-0.47;100.00;100771.03;5297323;28;20028;-74
2022/12/15 14:29:36;;;;;;;42.77;28.77;;;;;;;-0.51;100.00;100755.63;5295373;28;20028;-76
2022/12/15 14:32:09;;;;;;;43.87;31.20;;;;;;;-0.52;100.00;100753.94;5296935;28;20028;-75
2022/12/15 14:34:42;;;;;;;40.03;29.13;;;;;;;-0.50;100.00;100756.47;5297991;28;20107;-75
2022/12/15 14:37:18;;;;;;;44.63;31.05;;;;;;;-0.50;100.00;100764.22;5297582;28;20031;-72
2022/12/15 14:39:50;;;;;;;48.63;32.57;;;;;;;-0.49;100.00;100766.75;5297011;28;20078;-74
2022/12/15 14:42:24;;;;;;;38.90;29.63;;;;;;;-0.46;100.00;100757.28;5298322;28;20024;-74
2022/12/15 14:44:56;;;;;;;;;;;;;;;-0.38;100.00;100761.44;5303595;28;20493;-73
2022/12/15 14:47:32;;;;;;;44.60;30.47;;;;;;;-0.43;100.00;100755.53;5297134;28;19966;-76
2022/12/15 14:50:10;;;;;;;38.80;28.90;;;;;;;-0.51;100.00;100750.47;5295692;28;20028;-76
2022/12/15 14:52:43;;;;;;;42.87;30.73;;;;;;;-0.55;100.00;100750.56;5296478;28;20057;-75
2022/12/15 14:55:20;;;;;;;43.70;30.70;;;;;;;-0.51;100.00;100755.63;5296035;28;20465;-75
2022/12/15 14:57:52;;;;;;;41.53;29.00;;;;;;;-0.67;100.00;100739.59;5292961;28;20028;-75
2022/12/15 15:00:33;;;;;;;41.97;31.00;;;;;;;-0.64;100.00;100738.69;5297393;28;20032;-74
2022/12/15 15:03:13;;;;;;;46.27;31.87;;;;;;;-0.55;100.00;100746.28;5296770;28;20039;-77
2022/12/15 15:05:48;;;;;;;41.80;29.80;;;;;;;-0.61;100.00;100739.50;5297467;28;20182;-76
2022/12/15 15:08:29;;;;;;;40.47;29.90;;;;;;;-0.64;100.00;100739.53;5295765;28;20028;-79
2022/12/15 15:11:23;;;;;;;38.57;31.00;;;;;;;-0.67;100.00;100738.72;5296846;28;20523;-78
2022/12/15 15:13:58;;;;;;;43.57;29.43;;;;;;;-0.70;100.00;100741.34;5295124;28;20032;-73
2022/12/15 15:16:30;;;;;;;41.30;31.93;;;;;;;-0.69;100.00;100745.63;5297183;28;20050;-76
2022/12/15 15:19:03;;;;;;;46.90;33.13;;;;;;;-0.75;100.00;100736.28;5296246;28;20436;-72
2022/12/15 15:21:37;;;;;;;48.20;31.27;;;;;;;-0.82;100.00;100737.25;5296733;28;20028;-76
2022/12/15 15:24:09;;;;;;;44.70;31.27;;;;;;;-0.77;100.00;100743.16;5291531;28;20032;-73
2022/12/15 15:26:41;;;;;;;46.00;31.00;;;;;;;-0.83;100.00;100731.25;5295648;28;20043;-77
2022/12/15 15:29:33;;;;;;;49.67;32.77;;;;;;;-0.79;100.00;100734.63;5296220;28;20030;-73
2022/12/15 15:32:12;;;;;;;52.53;34.87;;;;;;;-0.92;100.00;100741.63;5299582;28;20161;-74
2022/12/15 15:34:46;;;;;;;49.83;35.23;;;;;;;-0.92;100.00;100739.94;5286924;28;20046;-77
2022/12/15 15:37:24;;;;;;;51.73;38.80;;;;;;;-0.92;100.00;100739.94;5289281;28;20032;-77
2022/12/15 15:39:55;;;;;;;51.80;35.80;;;;;;;-0.92;100.00;100744.22;5287213;28;20048;-79
2022/12/15 15:42:27;;;;;;;52.80;36.03;;;;;;;-0.92;100.00;100746.78;5287235;28;20645;-81
2022/12/15 15:44:58;;;;;;;47.37;33.80;;;;;;;-0.96;100.00;100742.56;5286473;28;20016;-79
2022/12/15 15:47:29;;;;;;;50.47;34.77;;;;;;;-1.13;100.00;100729.06;5288309;28;20024;-79
2022/12/15 15:50:01;;;;;;;46.43;33.73;;;;;;;-0.99;100.00;100738.31;5287390;28;20120;-76
2022/12/15 15:52:33;;;;;;;47.40;33.80;;;;;;;-1.01;100.00;100740.03;5288410;28;20048;-77
2022/12/15 15:55:05;;;;;;;44.83;33.20;;;;;;;-0.96;100.00;100748.53;5288446;28;20375;-76
2022/12/15 15:57:36;;;;;;;55.77;36.13;;;;;;;-0.89;100.00;100744.19;5287677;28;20101;-77
2022/12/15 16:00:20;;;;;;;47.77;35.70;;;;;;;-0.89;100.00;100733.91;5287632;28;20075;-81
2022/12/15 16:02:51;;;;;;;48.13;33.67;;;;;;;-0.91;100.00;100751.91;5288927;28;20627;-87
2022/12/15 16:05:23;;;;;;;47.13;33.33;;;;;;;-1.02;100.00;100744.34;5288736;28;20035;-77
2022/12/15 16:07:57;;;;;;;49.93;35.63;;;;;;;-0.89;100.00;100749.34;5286059;28;20043;-73
2022/12/15 16:10:28;;;;;;;52.73;36.43;;;;;;;-0.93;100.00;100752.81;5287204;28;20138;-74
2022/12/15 16:13:00;;;;;;;56.30;37.17;;;;;;;-0.99;100.00;100736.59;5286007;28;20080;-74
2022/12/15 16:15:32;;;;;;;46.70;33.90;;;;;;;-1.04;100.00;100745.22;5288879;28;20027;-73
2022/12/15 16:18:03;;;;;;;47.83;36.40;;;;;;;-0.92;100.00;100739.06;5287688;28;20036;-75
2022/12/15 16:20:35;;;;;;;51.13;37.23;;;;;;;-0.92;100.00;100745.06;5288027;28;20078;-79
2022/12/15 16:23:15;;;;;;;53.07;36.53;;;;;;;-0.96;100.00;100748.53;5286803;28;20024;-74
2022/12/15 16:25:52;;;;;;;48.30;35.73;;;;;;;-1.07;100.00;100730.72;5288816;28;20486;-76
2022/12/15 16:28:26;;;;;;;53.60;35.30;;;;;;;-1.14;100.00;100736.78;5291146;28;20052;-76
2022/12/15 16:30:58;;;;;;;49.88;38.83;;;;;;;-1.07;100.00;100752.97;5291891;28;20027;-77
2022/12/15 16:33:29;;;;;;;55.17;36.83;;;;;;;-1.18;100.00;100742.81;5291591;28;20024;-74
2022/12/15 16:36:00;;;;;;;48.33;35.23;;;;;;;-1.08;100.00;100754.69;5290635;28;20043;-74
2022/12/15 16:38:32;;;;;;;49.23;35.40;;;;;;;-1.12;100.00;100760.75;5290634;28;20080;-85
2022/12/15 16:41:05;;;;;;;46.83;36.17;;;;;;;-1.10;100.00;100766.75;5291059;28;20035;-82
2022/12/15 16:43:36;;;;;;;56.27;35.63;;;;;;;-1.13;100.00;100759.91;5290772;28;20051;-76
2022/12/15 16:46:10;;;;;;;50.50;36.10;;;;;;;-1.17;100.00;100757.41;5293683;28;20036;-73
2022/12/15 16:48:42;;;;;;;53.55;39.85;;;;;;;-1.14;100.00;100765.06;5289549;28;20036;-76
2022/12/15 16:51:44;;;;;;;55.07;35.93;;;;;;;-1.15;100.00;100761.63;5290265;28;20054;-75
2022/12/15 16:54:19;;;;;;;54.73;38.27;;;;;;;-1.15;100.00;100764.22;5289516;28;20692;-72
2022/12/15 16:56:52;;;;;;;51.40;37.27;;;;;;;-1.18;100.00;100763.38;5289681;28;20394;-72
2022/12/15 16:59:28;;;;;;;51.90;37.97;;;;;;;-1.38;100.00;100773.03;5287937;28;20374;-71
2022/12/15 17:01:59;;;;;;;55.53;38.30;;;;;;;-1.31;100.00;100768.69;5290122;28;20065;-82
2022/12/15 17:04:31;;;;;;;54.60;37.27;;;;;;;-1.24;100.00;100775.44;5290296;28;20021;-80
2022/12/15 17:07:02;;;;;;;56.17;38.67;;;;;;;-1.38;100.00;100778.16;5290908;28;20028;-77
2022/12/15 17:09:36;;;;;;;59.03;40.13;;;;;;;-1.32;100.00;100766.97;5286636;28;20079;-78
2022/12/15 17:12:14;;;;;;;55.08;39.78;;;;;;;-1.34;100.00;100776.41;5288600;28;20028;-79
2022/12/15 17:14:46;;;;;;;69.73;42.67;;;;;;;-1.32;100.00;100782.41;5288061;28;20032;-75
2022/12/15 17:17:18;;;;;;;60.27;42.27;;;;;;;-1.35;100.00;100783.28;5289736;28;20282;-79
2022/12/15 17:19:50;;;;;;;65.47;44.27;;;;;;;-1.40;100.00;100779.06;5289146;28;20313;-79
2022/12/15 17:22:22;;;;;;;71.37;47.37;;;;;;;-1.50;100.00;100768.88;5288293;28;20028;-84
2022/12/15 17:24:54;;;;;;;74.77;47.87;;;;;;;-1.55;100.00;100765.50;5288999;28;20332;-73
2022/12/15 17:27:27;;;;;;;66.30;45.00;;;;;;;-1.47;100.00;100789.38;5287422;28;20123;-76
2022/12/15 17:30:00;;;;;;;81.00;50.13;;;;;;;-1.42;100.00;100796.22;5288751;28;20118;-80
2022/12/15 17:32:31;;;;;;;79.57;52.07;;;;;;;-1.55;100.00;100778.34;5290057;28;20508;-81
2022/12/15 17:35:02;;;;;;;80.53;53.03;;;;;;;-1.50;100.00;100789.44;5287880;28;20040;-77
2022/12/15 17:37:34;;;;;;;71.50;45.90;;;;;;;-1.43;100.00;100807.38;5290062;28;20024;-74
2022/12/15 17:40:17;;;;;;;61.10;41.67;;;;;;;-1.52;100.00;100811.72;5288696;28;20179;-80
2022/12/15 17:42:49;;;;;;;60.43;40.70;;;;;;;-1.50;100.00;100815.13;5288971;28;20637;-80
2022/12/15 17:45:22;;;;;;;58.70;41.83;;;;;;;-1.48;100.00;100823.66;5289939;28;20290;-78
2022/12/15 17:47:54;;;;;;;56.20;40.47;;;;;;;-1.43;100.00;100825.34;5288876;28;20028;-77
2022/12/15 17:50:25;;;;;;;63.87;41.23;;;;;;;-1.59;100.00;100821.19;5289839;28;20443;-80
2022/12/15 17:52:57;;;;;;;54.53;38.43;;;;;;;-1.52;100.00;100832.25;5289391;28;20028;-81
2022/12/15 17:55:28;;;;;;;59.17;40.33;;;;;;;-1.51;100.00;100839.13;5288098;28;20529;-79
2022/12/15 17:58:00;;;;;;;50.17;37.67;;;;;;;-1.59;100.00;100840.91;5287413;28;20494;-83
2022/12/15 18:00:32;;;;;;;55.27;38.07;;;;;;;-1.77;100.00;100814.53;5287789;28;20035;-82
2022/12/15 18:03:03;;;;;;;56.17;37.60;;;;;;;-1.84;100.00;100841.13;5288951;28;20039;-74
2022/12/15 18:05:35;;;;;;;53.23;37.40;;;;;;;-1.61;100.00;100837.50;5289163;28;20949;-77
2022/12/15 18:08:15;;;;;;;54.73;37.87;;;;;;;-1.64;100.00;100847.81;5290268;28;20086;-80
2022/12/15 18:10:49;;;;;;;53.23;37.13;;;;;;;-1.61;100.00;100830.66;5296363;28;20111;-79
2022/12/15 18:13:25;;;;;;;55.70;37.65;;;;;;;-1.58;100.00;100842.59;5293995;28;20024;-83
2022/12/15 18:15:56;;;;;;;51.07;36.30;;;;;;;-1.62;100.00;100836.63;5311896;28;20035;-78
2022/12/15 18:18:28;;;;;;;57.67;38.30;;;;;;;-1.76;100.00;100834.19;5294774;28;20035;-79
2022/12/15 18:21:09;;;;;;;61.57;38.70;;;;;;;-1.52;100.00;100842.53;5290937;28;20032;-77
2022/12/15 18:23:42;;;;;;;56.03;39.27;;;;;;;-1.58;100.00;100832.34;5294182;28;20451;-85
2022/12/15 18:26:13;;;;;;;57.73;40.03;;;;;;;-1.56;100.00;100829.75;5293978;28;20336;-79
2022/12/15 18:28:45;;;;;;;51.87;36.57;;;;;;;-1.47;100.00;100840.78;5290039;28;20767;-81
2022/12/15 18:31:24;;;;;;;51.90;37.13;;;;;;;-1.53;100.00;100845.97;5307026;27;21728;-79
2022/12/15 18:33:56;;;;;;;54.37;35.40;;;;;;;-1.55;100.00;100842.56;5297890;28;20525;-80
2022/12/15 18:36:28;;;;;;;58.47;39.77;;;;;;;-1.69;100.00;100831.59;5285618;28;20123;-78
2022/12/15 18:39:07;;;;;;;57.10;39.17;;;;;;;-1.64;100.00;100843.50;5290241;28;20428;-78
2022/12/15 18:41:39;;;;;;;67.87;41.07;;;;;;;-1.58;100.00;100842.59;5293505;28;20028;-84
2022/12/15 18:44:24;;;;;;;57.53;38.60;;;;;;;-1.69;100.00;100818.75;5292348;28;20028;-77
2022/12/15 18:46:55;;;;;;;59.87;38.63;;;;;;;-1.72;100.00;100830.75;5292510;28;20103;-87
2022/12/15 18:49:26;;;;;;;66.00;41.80;;;;;;;-1.59;100.00;100838.34;5294204;28;20376;-83
2022/12/15 18:51:58;;;;;;;79.70;46.63;;;;;;;-1.63;100.00;100844.38;5293424;28;20058;-78
2022/12/15 18:54:30;;;;;;;66.77;43.43;;;;;;;-1.74;100.00;100841.88;5290211;28;20032;-82
2022/12/15 18:57:01;;;;;;;65.07;41.10;;;;;;;-1.65;100.00;100853.78;5293736;28;20081;-79
2022/12/15 18:59:32;;;;;;;54.60;37.43;;;;;;;-1.63;100.00;100852.06;5288785;28;20031;-87
2022/12/15 19:02:04;;;;;;;54.77;34.07;;;;;;;-1.78;100.00;100850.50;5292557;28;20024;-75
2022/12/15 19:04:36;;;;;;;51.30;36.27;;;;;;;-1.82;100.00;100844.53;5291243;28;20165;-81
2022/12/15 19:07:11;;;;;;;54.80;34.33;;;;;;;-1.72;100.00;100865.84;5298760;28;20111;-85
2022/12/15 19:09:43;;;;;;;48.23;32.73;;;;;;;-1.66;100.00;100854.66;5286820;28;20041;-80
2022/12/15 19:12:18;;;;;;;49.03;32.33;;;;;;;-1.64;100.00;100858.09;5297648;28;20290;-84
2022/12/15 19:14:51;;;;;;;50.57;34.10;;;;;;;-1.75;100.00;100861.59;5291205;28;20023;-75
2022/12/15 19:23:07;;;;;;;45.43;32.90;;;;;;;-1.95;100.00;100854.88;5289833;28;20838;-80
2022/12/15 19:25:39;;;;;;;43.87;32.27;;;;;;;-1.81;100.00;100848.78;5289511;28;20367;-79
2022/12/15 19:28:21;;;;;;;42.70;30.77;;;;;;;-1.77;100.00;100847.91;5291671;28;20034;-75
2022/12/15 19:30:53;;;;;;;49.20;32.03;;;;;;;-1.74;100.00;100850.44;5290859;28;20020;-81
2022/12/15 19:33:24;;;;;;;46.73;31.87;;;;;;;-1.97;100.00;100866.00;5294101;28;20288;-74
2022/12/15 19:35:56;;;;;;;44.50;31.73;;;;;;;-1.76;100.00;100865.00;5290852;28;20028;-82
2022/12/15 19:38:30;;;;;;;44.93;29.33;;;;;;;-1.72;100.00;100865.84;5292753;28;20142;-80
2022/12/15 19:41:02;;;;;;;49.50;32.30;;;;;;;-1.77;100.00;100853.03;5297537;28;20056;-81
2022/12/15 19:43:33;;;;;;;47.57;33.40;;;;;;;-1.77;100.00;100853.03;5292125;28;20085;-78
2022/12/15 19:46:05;;;;;;;50.03;32.83;;;;;;;-1.82;100.00;100847.09;5302791;28;20048;-81
2022/12/15 19:48:36;;;;;;;45.73;31.37;;;;;;;-1.73;100.00;100859.00;5294491;28;20032;-84
2022/12/15 19:51:16;;;;;;;47.53;30.40;;;;;;;-1.73;100.00;100859.00;5283617;28;20860;-83
2022/12/15 19:53:48;;;;;;;43.83;30.17;;;;;;;-1.76;100.00;100848.78;5283497;28;20094;-80
2022/12/15 19:56:21;;;;;;;45.73;30.63;;;;;;;-1.78;100.00;100846.19;5283423;28;20297;-81
2022/12/15 19:58:52;;;;;;;50.20;30.50;;;;;;;-1.86;100.00;100842.84;5282764;28;20305;-73
2022/12/15 20:01:23;;;;;;;42.27;31.07;;;;;;;-1.93;100.00;100830.91;5287918;28;20324;-76
2022/12/15 20:03:55;;;;;;;47.70;32.13;;;;;;;-1.98;100.00;100813.84;5287452;28;20048;-82
2022/12/15 20:06:27;;;;;;;41.43;28.80;;;;;;;-1.83;100.00;100829.97;5288529;28;20060;-78
2022/12/15 20:08:58;;;;;;;44.77;31.43;;;;;;;-1.95;100.00;100843.75;5287574;28;20020;-77
2022/12/15 20:11:31;;;;;;;42.13;30.10;;;;;;;-1.96;100.00;100842.94;5287923;28;20107;-78
2022/12/15 20:14:10;;;;;;;43.87;30.57;;;;;;;-1.99;100.00;100835.22;5288076;28;20043;-83
2022/12/15 20:16:42;;;;;;;41.83;29.87;;;;;;;-1.97;100.00;100841.19;5288793;28;20289;-80
2022/12/15 20:19:13;;;;;;;47.70;30.30;;;;;;;-1.90;100.00;100852.28;5288112;28;20324;-79
2022/12/15 20:21:44;;;;;;;50.30;32.03;;;;;;;-2.00;100.00;100848.94;5287407;28;20218;-72
2022/12/15 20:24:18;;;;;;;45.20;30.83;;;;;;;-1.94;100.00;100848.03;5288311;28;20534;-76
2022/12/15 20:26:49;;;;;;;48.80;31.90;;;;;;;-1.95;100.00;100854.88;5285947;28;20036;-77
2022/12/15 20:29:27;;;;;;;49.07;33.10;;;;;;;-1.97;100.00;100845.47;5287792;28;21671;-82
2022/12/15 20:31:59;;;;;;;49.37;36.00;;;;;;;-1.99;100.00;100842.94;5289072;28;20775;-77
2022/12/15 20:34:30;;;;;;;48.57;32.87;;;;;;;-1.99;100.00;100842.94;5287680;28;20282;-77
2022/12/15 20:37:15;;;;;;;48.03;32.40;;;;;;;-2.06;100.00;100843.84;5286967;28;20028;-81
2022/12/15 20:39:46;;;;;;;48.95;31.27;;;;;;;-2.09;100.00;100842.16;5288807;28;20403;-79
2022/12/15 20:42:19;;;;;;;49.27;32.67;;;;;;;-2.11;100.00;100843.88;5286498;28;20039;-78
2022/12/15 20:44:50;;;;;;;47.07;31.07;;;;;;;-2.15;100.00;100841.34;5288162;28;20070;-76
2022/12/15 20:47:25;;;;;;;45.43;32.80;;;;;;;-2.11;100.00;100830.22;5286475;28;20859;-73
2022/12/15 20:49:56;;;;;;;50.20;33.92;;;;;;;-2.11;100.00;100843.03;5290516;28;20103;-79
2022/12/15 20:52:28;;;;;;;48.87;31.97;;;;;;;-2.09;100.00;100841.28;5288971;28;20042;-78
2022/12/15 20:55:01;;;;;;;46.30;32.97;;;;;;;-2.10;100.00;100849.88;5288058;28;20031;-72
2022/12/15 20:57:33;;;;;;;52.13;33.23;;;;;;;-2.14;100.00;100846.47;5285472;28;20066;-71
2022/12/15 21:00:05;;;;;;;44.37;31.60;;;;;;;-2.16;100.00;100837.91;5287465;28;20754;-76
2022/12/15 21:02:36;;;;;;;47.47;33.37;;;;;;;-2.15;100.00;100841.34;5289553;28;20093;-75
2022/12/15 21:05:21;;;;;;;56.03;35.57;;;;;;;-2.16;100.00;100839.66;5289914;28;20286;-76
2022/12/15 21:07:52;;;;;;;50.47;33.22;;;;;;;-2.30;100.00;100827.75;5288693;28;20120;-72
2022/12/15 21:10:25;;;;;;;51.40;33.17;;;;;;;-2.36;100.00;100832.94;5281895;28;20124;-79
2022/12/15 21:12:57;;;;;;;50.33;35.43;;;;;;;-2.83;100.00;100840.84;5282770;28;20103;-82
2022/12/15 21:15:28;;;;;;;50.03;32.63;;;;;;;-2.70;100.00;100834.81;5290205;28;20381;-79
2022/12/15 21:18:00;;;;;;;53.67;35.30;;;;;;;-2.76;100.00;100839.13;5290068;28;20089;-80
2022/12/15 21:20:31;;;;;;;55.93;38.77;;;;;;;-2.63;100.00;100845.03;5291595;28;20028;-81
2022/12/15 21:23:03;;;;;;;56.97;37.47;;;;;;;-2.61;100.00;100841.59;5297455;28;20028;-84
2022/12/15 21:25:34;;;;;;;53.83;36.57;;;;;;;-2.57;100.00;100833.03;5295999;28;20030;-77
2022/12/15 21:28:10;;;;;;;54.60;33.63;;;;;;;-2.50;100.00;100839.00;5295892;28;20035;-83
2022/12/15 21:30:42;;;;;;;47.20;34.47;;;;;;;-2.55;100.00;100833.03;5297446;28;20081;-82
2022/12/15 21:33:14;;;;;;;55.10;35.03;;;;;;;-2.55;100.00;100836.44;5297237;28;20293;-83
2022/12/15 21:35:46;;;;;;;49.40;32.90;;;;;;;-2.55;100.00;100833.03;5295189;28;20032;-79
2022/12/15 21:38:38;;;;;;;47.83;33.50;;;;;;;-2.48;100.00;100829.56;5297638;28;20278;-78
2022/12/15 21:41:15;;;;;;;48.20;33.17;;;;;;;-2.48;100.00;100838.97;5296823;28;20290;-79
2022/12/15 21:43:47;;;;;;;46.83;32.37;;;;;;;-2.48;100.00;100839.81;5296095;28;20274;-80
2022/12/15 21:46:23;;;;;;;56.93;37.37;;;;;;;-2.85;100.00;100842.56;5296880;28;20286;-77
2022/12/15 21:49:14;;;;;;;55.17;36.70;;;;;;;-2.51;100.00;100844.97;5298638;28;20032;-78
2022/12/15 21:51:55;;;;;;;55.30;38.13;;;;;;;-2.50;100.00;100841.56;5292126;28;20282;-79
2022/12/15 21:54:31;;;;;;;53.17;35.30;;;;;;;-2.50;100.00;100840.69;5295791;28;20281;-77
2022/12/15 21:57:02;;;;;;;52.27;35.60;;;;;;;-2.48;100.00;100827.00;5291887;28;20348;-81
